createdAt,value
2022-11-23T00:01:47.035Z,45.30
2022-11-23T00:04:15.552Z,45.40
2022-11-23T00:06:44.321Z,45.50
2022-11-23T00:09:13.580Z,45.50
2022-11-23T00:11:50.462Z,45.20
2022-11-23T00:14:18.948Z,44.80
2022-11-23T00:16:50.194Z,44.90
2022-11-23T00:19:18.725Z,45.30
2022-11-23T00:21:47.212Z,45.30
2022-11-23T00:24:16.059Z,45.50
2022-11-23T00:26:44.689Z,45.10
2022-11-23T00:29:14.650Z,45.00
2022-11-23T00:31:43.275Z,45.10
2022-11-23T00:34:11.748Z,45.10
2022-11-23T00:36:40.282Z,45.30
2022-11-23T00:39:08.763Z,45.20
2022-11-23T00:41:37.693Z,45.40
2022-11-23T00:44:06.419Z,45.40
2022-11-23T00:46:39.141Z,45.30
2022-11-23T00:49:17.522Z,45.40
2022-11-23T00:51:46.081Z,45.40
2022-11-23T00:54:14.637Z,45.40
2022-11-23T00:56:43.149Z,45.40
2022-11-23T00:59:11.787Z,45.20
2022-11-23T01:01:41.752Z,45.30
2022-11-23T01:04:10.550Z,45.30
2022-11-23T01:06:41.384Z,45.20
2022-11-23T01:09:14.864Z,45.10
2022-11-23T01:11:43.522Z,45.10
2022-11-23T01:14:13.095Z,45.10
2022-11-23T01:16:43.728Z,45.00
2022-11-23T01:19:15.518Z,45.00
2022-11-23T01:21:44.621Z,44.90
2022-11-23T01:24:16.354Z,44.80
2022-11-23T01:26:45.666Z,44.60
2022-11-23T01:29:14.597Z,44.70
2022-11-23T01:31:46.881Z,44.70
2022-11-23T01:34:16.835Z,44.70
2022-11-23T01:36:46.636Z,44.60
2022-11-23T01:39:15.620Z,44.60
2022-11-23T01:41:46.736Z,44.70
2022-11-23T01:44:29.556Z,44.70
2022-11-23T01:47:02.172Z,44.70
2022-11-23T01:49:36.695Z,44.50
2022-11-23T01:52:11.108Z,44.70
2022-11-23T01:54:46.678Z,44.60
2022-11-23T01:57:22.559Z,44.60
2022-11-23T01:59:52.122Z,44.60
2022-11-23T02:02:22.108Z,44.70
2022-11-23T02:04:52.771Z,44.70
2022-11-23T02:07:24.760Z,44.60
2022-11-23T02:09:54.220Z,44.60
2022-11-23T02:12:22.746Z,44.60
2022-11-23T02:14:51.530Z,44.60
2022-11-23T02:17:22.560Z,44.80
2022-11-23T02:20:04.564Z,44.70
2022-11-23T02:22:45.086Z,44.80
2022-11-23T02:25:30.319Z,44.70
2022-11-23T02:28:02.920Z,44.80
2022-11-23T02:30:33.630Z,44.70
2022-11-23T02:33:06.534Z,44.60
2022-11-23T02:35:35.912Z,44.50
2022-11-23T02:38:08.455Z,44.50
2022-11-23T02:40:38.455Z,44.30
2022-11-23T02:43:08.452Z,44.20
2022-11-23T02:45:42.487Z,44.20
2022-11-23T02:48:11.067Z,44.10
2022-11-23T02:50:39.689Z,44.10
2022-11-23T02:53:08.518Z,44.20
2022-11-23T02:55:37.202Z,44.10
2022-11-23T02:58:08.767Z,44.10
2022-11-23T03:00:38.360Z,44.10
2022-11-23T03:03:07.500Z,44.30
2022-11-23T03:05:36.361Z,44.30
2022-11-23T03:08:05.246Z,44.30
2022-11-23T03:10:33.749Z,44.50
2022-11-23T03:13:02.473Z,44.50
2022-11-23T03:15:33.063Z,44.50
2022-11-23T03:18:01.786Z,44.40
2022-11-23T03:20:30.513Z,44.40
2022-11-23T03:22:59.431Z,44.40
2022-11-23T03:25:28.099Z,44.30
2022-11-23T03:27:56.704Z,44.20
2022-11-23T03:30:25.307Z,44.10
2022-11-23T03:32:55.395Z,44.10
2022-11-23T03:35:23.984Z,44.00
2022-11-23T03:37:52.572Z,44.00
2022-11-23T03:40:21.292Z,44.00
2022-11-23T03:42:50.154Z,44.10
2022-11-23T03:45:18.838Z,44.10
2022-11-23T03:47:47.341Z,44.00
2022-11-23T03:50:17.771Z,43.90
2022-11-23T03:52:46.366Z,43.90
2022-11-23T03:55:14.983Z,43.80
2022-11-23T03:57:43.697Z,43.80
2022-11-23T04:00:13.592Z,44.10
2022-11-23T04:02:42.366Z,44.20
2022-11-23T04:05:11.510Z,44.30
2022-11-23T04:07:41.655Z,44.30
2022-11-23T04:10:10.953Z,44.60
2022-11-23T04:12:39.594Z,44.70
2022-11-23T04:15:09.437Z,44.70
2022-11-23T04:17:38.001Z,44.60
2022-11-23T04:20:08.698Z,44.80
2022-11-23T04:22:37.409Z,44.70
2022-11-23T04:25:08.465Z,44.90
2022-11-23T04:27:36.948Z,44.90
2022-11-23T04:30:06.667Z,45.00
2022-11-23T04:32:35.290Z,44.80
2022-11-23T04:35:03.917Z,44.70
2022-11-23T04:37:32.408Z,44.80
2022-11-23T04:40:00.976Z,44.70
2022-11-23T04:42:31.022Z,44.60
2022-11-23T04:44:59.648Z,44.60
2022-11-23T04:47:28.448Z,44.50
2022-11-23T04:49:56.924Z,44.30
2022-11-23T04:52:25.526Z,44.20
2022-11-23T04:54:54.031Z,44.20
2022-11-23T04:57:22.523Z,44.20
2022-11-23T04:59:52.484Z,44.10
2022-11-23T05:02:21.008Z,44.00
2022-11-23T05:04:49.570Z,43.80
2022-11-23T05:07:18.520Z,43.90
2022-11-23T05:09:47.056Z,44.00
2022-11-23T05:12:15.630Z,43.90
2022-11-23T05:14:44.188Z,44.10
2022-11-23T05:17:14.396Z,43.80
2022-11-23T05:19:42.849Z,43.50
2022-11-23T05:22:11.349Z,43.20
2022-11-23T05:24:39.969Z,43.30
2022-11-23T05:27:08.586Z,43.50
2022-11-23T05:29:37.677Z,43.70
2022-11-23T05:32:07.361Z,43.90
2022-11-23T05:34:37.286Z,43.90
2022-11-23T05:37:05.950Z,44.00
2022-11-23T05:39:34.736Z,43.80
2022-11-23T05:42:03.327Z,43.70
2022-11-23T05:44:32.202Z,43.70
2022-11-23T05:47:00.938Z,43.60
2022-11-23T05:49:29.537Z,43.50
2022-11-23T05:51:59.722Z,43.60
2022-11-23T05:54:28.429Z,43.50
2022-11-23T05:56:56.982Z,43.60
2022-11-23T05:59:25.498Z,43.50
2022-11-23T06:01:54.073Z,43.50
2022-11-23T06:04:22.602Z,43.50
2022-11-23T06:06:51.337Z,43.30
2022-11-23T06:09:21.551Z,43.30
2022-11-23T06:11:50.145Z,43.30
2022-11-23T06:14:18.706Z,43.30
2022-11-23T06:16:47.238Z,43.40
2022-11-23T06:19:15.831Z,43.30
2022-11-23T06:21:50.131Z,43.40
2022-11-23T06:24:20.377Z,43.30
2022-11-23T06:26:48.968Z,43.30
2022-11-23T06:29:17.614Z,43.30
2022-11-23T06:31:46.169Z,43.20
2022-11-23T06:34:15.256Z,43.30
2022-11-23T06:36:44.334Z,43.40
2022-11-23T06:39:13.341Z,43.50
2022-11-23T06:41:43.261Z,43.30
2022-11-23T06:44:12.032Z,43.40
2022-11-23T06:46:40.968Z,43.40
2022-11-23T06:49:09.762Z,43.50
2022-11-23T06:51:38.394Z,43.60
2022-11-23T06:54:07.101Z,43.60
2022-11-23T06:56:35.612Z,43.60
2022-11-23T06:59:06.109Z,43.60
2022-11-23T07:01:34.694Z,43.50
2022-11-23T07:04:03.278Z,43.40
2022-11-23T07:06:31.846Z,43.40
2022-11-23T07:09:00.426Z,43.40
2022-11-23T07:11:29.536Z,43.40
2022-11-23T07:13:58.346Z,43.30
2022-11-23T07:16:28.374Z,43.20
2022-11-23T07:18:56.805Z,43.90
2022-11-23T07:21:25.325Z,43.20
2022-11-23T07:23:53.870Z,43.10
2022-11-23T07:26:22.414Z,42.90
2022-11-23T07:28:50.879Z,43.20
2022-11-23T07:31:19.416Z,43.20
2022-11-23T07:33:49.732Z,43.20
2022-11-23T07:36:18.335Z,43.10
2022-11-23T07:38:47.010Z,43.30
2022-11-23T07:41:15.589Z,43.30
2022-11-23T07:43:44.074Z,43.40
2022-11-23T07:46:12.692Z,43.40
2022-11-23T07:48:41.241Z,43.20
2022-11-23T07:51:11.221Z,43.30
2022-11-23T07:53:39.690Z,43.40
2022-11-23T07:56:09.235Z,43.20
2022-11-23T07:58:37.936Z,42.70
2022-11-23T08:01:06.821Z,42.80
2022-11-23T08:03:35.402Z,42.90
2022-11-23T08:06:03.915Z,42.70
2022-11-23T08:08:35.310Z,42.40
2022-11-23T08:11:03.832Z,42.20
2022-11-23T08:13:34.797Z,42.30
2022-11-23T08:16:03.343Z,42.00
2022-11-23T08:18:31.888Z,42.10
2022-11-23T08:21:01.656Z,41.90
2022-11-23T08:23:30.938Z,42.70
2022-11-23T08:26:00.858Z,44.20
2022-11-23T08:28:29.353Z,42.30
2022-11-23T08:30:57.919Z,38.80
2022-11-23T08:33:26.429Z,33.40
2022-11-23T08:35:54.993Z,27.60
2022-11-23T08:38:23.539Z,26.60
2022-11-23T08:40:52.091Z,24.70
2022-11-23T08:43:22.190Z,21.80
2022-11-23T08:45:50.760Z,18.20
2022-11-23T08:48:19.334Z,17.60
2022-11-23T08:50:48.133Z,15.40
2022-11-23T08:53:16.906Z,14.70
2022-11-23T08:55:45.847Z,14.00
2022-11-23T08:58:14.634Z,12.90
2022-11-23T09:00:44.559Z,11.90
2022-11-23T09:03:13.131Z,11.30
2022-11-23T09:05:41.798Z,11.00
2022-11-23T09:08:10.409Z,11.90
2022-11-23T09:10:39.919Z,11.00
2022-11-23T09:13:08.583Z,10.40
2022-11-23T09:15:37.201Z,10.10
2022-11-23T09:18:07.467Z,9.20
2022-11-23T09:20:36.384Z,7.80
2022-11-23T09:23:07.973Z,7.50
2022-11-23T09:25:41.712Z,7.20
2022-11-23T09:28:12.656Z,6.90
2022-11-23T09:30:41.376Z,6.10
2022-11-23T09:33:11.475Z,6.10
2022-11-23T09:35:43.781Z,5.60
2022-11-23T09:38:12.809Z,5.40
2022-11-23T09:40:42.640Z,5.50
2022-11-23T09:43:52.793Z,5.50
2022-11-23T09:46:37.127Z,5.40
2022-11-23T09:49:18.178Z,5.00
2022-11-23T09:51:48.382Z,5.00
2022-11-23T09:54:28.934Z,4.70
2022-11-23T09:57:01.826Z,4.20
2022-11-23T09:59:42.294Z,4.30
2022-11-23T10:02:22.655Z,4.50
2022-11-23T10:04:54.574Z,4.30
2022-11-23T10:07:48.631Z,3.90
2022-11-23T10:10:39.672Z,3.50
2022-11-23T10:13:34.673Z,3.10
2022-11-23T10:16:24.700Z,3.40
2022-11-23T10:19:03.526Z,3.30
2022-11-23T10:21:47.578Z,3.10
2022-11-23T10:24:20.830Z,2.80
2022-11-23T10:26:51.717Z,2.80
2022-11-23T10:29:31.389Z,2.60
2022-11-23T10:32:01.153Z,2.30
2022-11-23T10:34:49.761Z,1.90
2022-11-23T10:37:20.519Z,1.70
2022-11-23T10:39:49.169Z,1.10
2022-11-23T10:42:30.156Z,1.00
2022-11-23T10:45:01.044Z,1.20
2022-11-23T10:47:41.143Z,1.00
2022-11-23T10:50:25.342Z,1.00
2022-11-23T10:53:00.656Z,1.00
2022-11-23T10:55:32.311Z,1.00
2022-11-23T10:58:02.373Z,1.00
2022-11-23T11:00:31.824Z,1.00
2022-11-23T11:03:03.461Z,1.00
2022-11-23T11:08:31.236Z,1.00
2022-11-23T11:11:04.203Z,1.00
2022-11-23T11:13:43.566Z,1.00
2022-11-23T11:16:23.023Z,1.00
2022-11-23T11:18:51.597Z,1.00
2022-11-23T11:21:23.938Z,1.00
2022-11-23T11:23:59.650Z,1.00
2022-11-23T11:26:31.505Z,1.00
2022-11-23T11:29:04.001Z,1.00
2022-11-23T11:31:52.103Z,1.00
2022-11-23T11:34:27.889Z,1.00
2022-11-23T11:37:10.018Z,1.00
2022-11-23T11:39:49.248Z,1.00
2022-11-23T11:42:24.969Z,1.00
2022-11-23T11:45:00.232Z,1.00
2022-11-23T11:47:39.087Z,1.00
2022-11-23T11:50:27.093Z,1.00
2022-11-23T11:53:08.644Z,1.00
2022-11-23T11:55:56.453Z,1.00
2022-11-23T11:58:27.718Z,1.00
2022-11-23T12:01:18.532Z,1.00
2022-11-23T12:03:55.251Z,1.00
2022-11-23T12:06:34.312Z,1.00
2022-11-23T12:09:12.702Z,1.00
2022-11-23T12:11:43.249Z,1.00
2022-11-23T12:14:15.819Z,1.00
2022-11-23T12:17:24.777Z,1.00
2022-11-23T12:19:58.555Z,1.00
2022-11-23T12:22:45.245Z,1.00
2022-11-23T12:25:26.053Z,2.20
2022-11-23T12:28:17.729Z,1.90
2022-11-23T12:31:01.592Z,1.40
2022-11-23T12:33:57.809Z,1.00
2022-11-23T12:36:49.969Z,1.00
2022-11-23T12:39:42.011Z,1.00
2022-11-23T12:42:17.552Z,1.00
2022-11-23T12:45:13.467Z,1.00
2022-11-23T12:47:57.616Z,1.00
2022-11-23T12:50:36.678Z,1.00
2022-11-23T12:53:27.921Z,1.00
2022-11-23T12:56:15.450Z,1.00
2022-11-23T12:58:46.839Z,1.00
2022-11-23T13:01:29.359Z,1.00
2022-11-23T13:04:52.740Z,1.00
2022-11-23T13:08:13.254Z,1.00
2022-11-23T13:11:07.022Z,1.00
2022-11-23T13:13:59.983Z,1.00
2022-11-23T13:17:01.370Z,1.00
2022-11-23T13:19:57.839Z,1.00
2022-11-23T13:22:28.010Z,2.50
2022-11-23T13:25:21.658Z,4.10
2022-11-23T13:28:00.456Z,4.10
2022-11-23T13:30:52.325Z,3.60
2022-11-23T13:33:39.852Z,4.70
2022-11-23T13:36:16.850Z,6.20
2022-11-23T13:38:48.199Z,7.60
2022-11-23T13:42:01.747Z,9.50
2022-11-23T13:44:33.557Z,10.70
2022-11-23T13:47:21.199Z,12.00
2022-11-23T13:49:53.938Z,12.80
2022-11-23T13:52:35.964Z,12.80
2022-11-23T13:55:21.844Z,14.00
2022-11-23T13:58:39.954Z,14.60
2022-11-23T14:01:09.765Z,14.90
2022-11-23T14:03:51.819Z,15.30
2022-11-23T14:06:49.884Z,15.90
2022-11-23T14:09:24.951Z,15.50
2022-11-23T14:12:04.638Z,16.40
2022-11-23T14:14:48.192Z,16.60
2022-11-23T14:18:03.411Z,17.40
2022-11-23T14:20:46.655Z,17.60
2022-11-23T14:23:58.285Z,17.60
2022-11-23T14:26:40.369Z,18.50
2022-11-23T14:29:32.979Z,19.50
2022-11-23T14:32:25.870Z,19.70
2022-11-23T14:35:16.431Z,20.60
2022-11-23T14:38:14.066Z,21.60
2022-11-23T14:40:59.210Z,22.20
2022-11-23T14:43:30.584Z,22.70
2022-11-23T14:46:04.316Z,24.10
2022-11-23T14:48:34.861Z,24.20
2022-11-23T14:51:08.206Z,25.20
2022-11-23T14:53:46.749Z,26.00
2022-11-23T14:56:35.604Z,27.60
2022-11-23T14:59:08.540Z,28.40
2022-11-23T15:01:38.775Z,29.90
2022-11-23T15:04:14.110Z,31.20
2022-11-23T15:06:50.722Z,31.90
2022-11-23T15:09:39.380Z,32.80
2022-11-23T15:12:22.787Z,33.50
2022-11-23T15:14:52.081Z,34.20
2022-11-23T15:17:27.224Z,35.80
2022-11-23T15:19:58.340Z,36.90
2022-11-23T15:22:28.948Z,36.90
2022-11-23T15:25:09.156Z,36.90
2022-11-23T15:27:42.989Z,36.50
2022-11-23T15:30:19.878Z,36.30
2022-11-23T15:32:58.845Z,36.10
2022-11-23T15:35:34.609Z,35.90
2022-11-23T15:38:05.793Z,36.60
2022-11-23T15:40:38.375Z,37.10
2022-11-23T15:43:14.254Z,37.20
2022-11-23T15:46:03.170Z,37.10
2022-11-23T15:48:35.339Z,36.90
2022-11-23T15:51:08.459Z,36.50
2022-11-23T15:53:49.535Z,36.80
2022-11-23T15:56:28.232Z,37.00
2022-11-23T15:59:01.322Z,37.20
2022-11-23T16:01:30.865Z,37.60
2022-11-23T16:04:03.568Z,37.50
2022-11-23T16:06:40.558Z,37.30
2022-11-23T16:09:54.464Z,37.20
2022-11-23T16:12:29.293Z,36.70
2022-11-23T16:15:40.833Z,36.50
2022-11-23T16:18:24.912Z,36.50
2022-11-23T16:20:57.662Z,37.30
2022-11-23T16:23:30.320Z,37.90
2022-11-23T16:26:02.681Z,38.10
2022-11-23T16:28:34.694Z,38.10
2022-11-23T16:31:05.595Z,37.90
2022-11-23T16:33:35.705Z,37.50
2022-11-23T16:36:04.400Z,37.20
2022-11-23T16:38:32.980Z,37.40
2022-11-23T16:41:01.587Z,37.30
2022-11-23T16:43:30.069Z,37.10
2022-11-23T16:45:58.666Z,37.00
2022-11-23T16:48:43.286Z,37.20
2022-11-23T16:51:14.519Z,37.90
2022-11-23T16:54:12.442Z,38.30
2022-11-23T16:56:34.059Z,38.60
2022-11-23T16:59:03.111Z,38.60
2022-11-23T17:01:33.452Z,38.50
2022-11-23T17:04:03.542Z,38.30
2022-11-23T17:06:32.189Z,38.30
2022-11-23T17:09:07.652Z,38.30
2022-11-23T17:11:43.587Z,38.20
2022-11-23T17:14:18.980Z,38.00
2022-11-23T17:16:48.261Z,37.70
2022-11-23T17:19:20.376Z,37.50
2022-11-23T17:21:49.057Z,37.40
2022-11-23T17:24:17.554Z,37.50
2022-11-23T17:26:52.190Z,37.30
2022-11-23T17:29:22.152Z,37.10
2022-11-23T17:31:52.485Z,37.00
2022-11-23T17:34:22.396Z,37.00
2022-11-23T17:36:53.278Z,37.10
2022-11-23T17:39:25.194Z,37.10
2022-11-23T17:41:53.642Z,37.10
2022-11-23T17:44:22.256Z,37.10
2022-11-23T17:46:53.961Z,37.30
2022-11-23T17:49:28.298Z,37.50
2022-11-23T17:51:56.972Z,37.40
2022-11-23T17:54:25.891Z,37.50
2022-11-23T17:56:54.412Z,37.80
2022-11-23T17:59:23.176Z,37.80
2022-11-23T18:01:51.746Z,38.00
2022-11-23T18:04:20.344Z,37.90
2022-11-23T18:06:50.264Z,37.80
2022-11-23T18:09:18.774Z,37.70
2022-11-23T18:11:47.259Z,37.60
2022-11-23T18:14:15.772Z,37.90
2022-11-23T18:16:44.326Z,38.20
2022-11-23T18:19:14.377Z,39.10
2022-11-23T18:21:43.260Z,39.60
2022-11-23T18:24:13.247Z,40.40
2022-11-23T18:26:42.116Z,40.70
2022-11-23T18:29:16.681Z,41.20
2022-11-23T18:31:45.722Z,41.70
2022-11-23T18:34:14.249Z,42.80
2022-11-23T18:36:42.861Z,43.00
2022-11-23T18:39:13.883Z,43.40
2022-11-23T18:41:42.410Z,43.40
2022-11-23T18:44:11.009Z,43.50
2022-11-23T18:46:41.253Z,43.70
2022-11-23T18:49:09.811Z,44.40
2022-11-23T18:51:38.594Z,45.00
2022-11-23T18:54:08.214Z,45.50
2022-11-23T18:56:38.637Z,45.40
2022-11-23T18:59:15.594Z,45.40
2022-11-23T19:01:57.809Z,45.40
2022-11-23T19:04:26.492Z,45.30
2022-11-23T19:06:55.036Z,45.60
2022-11-23T19:09:23.894Z,45.80
2022-11-23T19:11:53.854Z,46.10
2022-11-23T19:14:22.799Z,46.30
2022-11-23T19:16:51.468Z,46.40
2022-11-23T19:19:20.181Z,46.40
2022-11-23T19:21:48.870Z,46.50
2022-11-23T19:24:17.446Z,46.70
2022-11-23T19:26:46.489Z,47.40
2022-11-23T19:29:20.801Z,47.40
2022-11-23T19:31:54.796Z,47.70
2022-11-23T19:34:23.635Z,48.10
2022-11-23T19:36:55.108Z,48.20
2022-11-23T19:39:24.115Z,48.40
2022-11-23T19:41:53.286Z,49.00
2022-11-23T19:44:23.388Z,49.30
2022-11-23T19:46:52.363Z,48.50
2022-11-23T19:49:21.097Z,48.50
2022-11-23T19:51:52.360Z,48.60
2022-11-23T19:54:21.154Z,49.20
2022-11-23T19:56:51.749Z,49.30
2022-11-23T19:59:20.558Z,49.40
2022-11-23T20:01:50.713Z,49.70
2022-11-23T20:04:19.696Z,49.70
2022-11-23T20:06:48.329Z,49.80
2022-11-23T20:09:19.446Z,49.70
2022-11-23T20:11:50.866Z,50.20
2022-11-23T20:14:20.499Z,49.50
2022-11-23T20:16:50.456Z,49.80
2022-11-23T20:19:19.191Z,50.20
2022-11-23T20:21:47.866Z,50.40
2022-11-23T20:24:18.134Z,50.50
2022-11-23T20:26:46.879Z,50.70
2022-11-23T20:29:15.601Z,50.70
2022-11-23T20:31:44.387Z,50.80
2022-11-23T20:34:20.494Z,50.60
2022-11-23T20:36:50.705Z,50.50
2022-11-23T20:39:19.705Z,50.40
2022-11-23T20:41:49.927Z,50.30
2022-11-23T20:44:18.935Z,50.00
2022-11-23T20:47:04.050Z,50.00
2022-11-23T20:49:34.680Z,50.20
2022-11-23T20:52:03.720Z,50.30
2022-11-23T20:54:32.751Z,50.60
2022-11-23T20:57:01.660Z,50.80
2022-11-23T20:59:32.722Z,50.80
2022-11-23T21:02:01.530Z,50.70
2022-11-23T21:04:32.858Z,50.70
2022-11-23T21:07:03.186Z,50.60
2022-11-23T21:09:32.263Z,50.50
2022-11-23T21:12:18.875Z,50.40
2022-11-23T21:14:48.063Z,50.00
2022-11-23T21:17:16.768Z,50.30
2022-11-23T21:19:45.410Z,50.10
2022-11-23T21:22:18.676Z,50.20
2022-11-23T21:24:47.619Z,50.90
2022-11-23T21:27:16.391Z,50.30
2022-11-23T21:29:45.330Z,50.60
2022-11-23T21:32:15.158Z,50.80
2022-11-23T21:34:43.945Z,50.70
2022-11-23T21:37:14.461Z,52.00
2022-11-23T21:39:47.967Z,52.80
2022-11-23T21:42:19.864Z,55.30
2022-11-23T21:44:48.490Z,59.10
2022-11-23T21:47:17.413Z,59.90
2022-11-23T21:49:46.008Z,60.30
2022-11-23T21:52:15.984Z,61.70
2022-11-23T21:54:49.029Z,62.80
2022-11-23T21:57:17.977Z,62.50
2022-11-23T21:59:46.674Z,62.10
2022-11-23T22:02:15.258Z,62.20
2022-11-23T22:04:44.053Z,62.60
2022-11-23T22:07:12.681Z,62.60
2022-11-23T22:09:42.748Z,61.40
2022-11-23T22:12:12.622Z,62.90
2022-11-23T22:14:41.216Z,63.40
2022-11-23T22:17:09.738Z,63.40
2022-11-23T22:19:38.307Z,62.00
2022-11-23T22:22:07.557Z,61.90
2022-11-23T22:24:36.366Z,60.70
2022-11-23T22:27:06.456Z,60.40
2022-11-23T22:29:35.093Z,59.90
2022-11-23T22:32:03.757Z,59.10
2022-11-23T22:34:35.371Z,59.30
2022-11-23T22:37:10.260Z,59.80
2022-11-23T22:39:39.913Z,60.40
2022-11-23T22:42:10.219Z,60.90
2022-11-23T22:44:39.527Z,61.20
2022-11-23T22:47:08.174Z,60.80
2022-11-23T22:49:36.969Z,60.10
2022-11-23T22:52:08.206Z,59.90
2022-11-23T22:54:36.893Z,59.90
2022-11-23T22:57:05.756Z,59.60
2022-11-23T22:59:35.715Z,59.80
2022-11-23T23:02:04.303Z,59.80
2022-11-23T23:04:33.206Z,58.90
2022-11-23T23:07:02.211Z,58.50
2022-11-23T23:09:30.764Z,57.70
2022-11-23T23:11:59.367Z,57.40
2022-11-23T23:14:27.984Z,57.60
2022-11-23T23:16:59.972Z,57.20
2022-11-23T23:19:29.565Z,56.40
2022-11-23T23:21:58.348Z,56.60
2022-11-23T23:24:26.908Z,56.30
2022-11-23T23:26:55.751Z,56.30
2022-11-23T23:29:24.656Z,56.30
2022-11-23T23:31:53.472Z,55.70
2022-11-23T23:34:24.085Z,56.90
2022-11-23T23:36:52.737Z,57.30
2022-11-23T23:39:21.405Z,57.60
2022-11-23T23:41:49.989Z,57.70
2022-11-23T23:44:19.760Z,57.40
2022-11-23T23:46:48.319Z,57.20
2022-11-23T23:49:17.534Z,57.00
2022-11-23T23:51:51.462Z,56.40
2022-11-23T23:54:20.375Z,56.20
2022-11-23T23:56:48.959Z,55.60
2022-11-23T23:59:17.720Z,55.70
